Time;durP1;ratioP1;P1;durP2;ratioP2;P2;SDS_P1;SDS_P2;PMS_P1;PMS_P2;Temp;Humidity;BMP_temperature;BMP_pressure;BME280_temperature;BME280_humidity;BME280_pressure;Samples;Min_cycle;Max_cycle;Signal;HPM_P1;HPM_P2
2022/10/07 00:02:28;;;;;;;8.93;2.10;;;;;;;7.21;100.00;102360.84;13026642;22;20006;-87
2022/10/07 00:07:29;;;;;;;12.20;2.20;;;;;;;7.81;100.00;102477.41;13029208;22;20075;-86
2022/10/07 00:12:29;;;;;;;8.95;2.20;;;;;;;6.97;100.00;102332.81;13025380;22;20007;-87
2022/10/07 00:17:30;;;;;;;8.90;2.15;;;;;;;7.70;100.00;102434.03;13013208;22;20019;-87
2022/10/07 00:22:31;;;;;;;8.32;2.42;;;;;;;7.03;100.00;102342.16;13027645;22;20011;-87
2022/10/07 00:27:31;;;;;;;14.05;2.78;;;;;;;6.80;100.00;102320.38;13052909;22;20322;-87
2022/10/07 00:32:32;;;;;;;8.13;2.75;;;;;;;7.04;100.00;102352.88;13039159;22;20051;-86
2022/10/07 00:37:33;;;;;;;9.35;2.72;;;;;;;7.85;100.00;102484.19;13041094;22;20022;-87
2022/10/07 00:42:34;;;;;;;7.70;2.45;;;;;;;8.34;100.00;102600.44;13013939;22;20019;-87
2022/10/07 00:47:35;;;;;;;7.95;2.53;;;;;;;7.84;100.00;102490.69;13026457;22;20312;-87
2022/10/07 00:52:43;;;;;;;9.45;2.83;;;;;;;6.94;100.00;102366.03;13027203;22;20014;-86
2022/10/07 00:57:44;;;;;;;10.10;3.03;;;;;;;7.92;100.00;102502.56;13027200;22;19999;-87
2022/10/07 01:02:47;;;;;;;12.68;3.30;;;;;;;6.86;100.00;102325.09;13053060;22;20078;-87
2022/10/07 01:07:48;;;;;;;11.60;2.85;;;;;;;6.66;100.00;102281.94;13012561;22;20010;-87
2022/10/07 01:12:50;;;;;;;8.38;2.72;;;;;;;7.27;100.00;102412.94;13025453;22;20019;-89
2022/10/07 01:18:01;;;;;;;18.05;4.18;;;;;;;8.04;100.00;102495.50;13003833;22;20048;-87
2022/10/07 01:23:16;;;;;;;12.02;4.38;;;;;;;8.10;100.00;102491.97;13049811;22;20003;-86
2022/10/07 01:28:25;;;;;;;12.23;3.08;;;;;;;7.39;100.00;102421.50;13074662;22;20029;-86
2022/10/07 01:33:28;;;;;;;10.40;3.65;;;;;;;8.11;100.00;102499.16;13026593;22;20011;-87
2022/10/07 01:38:28;;;;;;;9.73;3.75;;;;;;;6.13;100.00;102144.56;13024878;22;20417;-86
2022/10/07 01:43:29;;;;;;;13.90;3.60;;;;;;;6.56;100.00;102232.16;13023918;22;20060;-86
2022/10/07 01:48:31;;;;;;;15.38;3.70;;;;;;;7.41;100.00;102326.25;13028771;22;20029;-90
2022/10/07 01:53:48;;;;;;;15.15;3.17;;;;;;;7.68;100.00;102364.84;13009210;22;20460;-90
2022/10/07 01:59:28;;;;;;;10.70;3.85;;;;;;;7.27;100.00;102327.19;13055654;22;20006;-90
2022/10/07 02:04:38;;;;;;;11.02;3.38;;;;;;;6.70;100.00;102210.38;13056625;22;19999;-91
2022/10/07 02:09:42;;;;;;;14.05;4.75;;;;;;;7.68;100.00;102401.34;13027573;22;20019;-91
2022/10/07 02:14:47;;;;;;;18.38;4.97;;;;;;;6.83;100.00;102210.53;13026582;22;20041;-90
2022/10/07 02:19:52;;;;;;;10.33;3.60;;;;;;;6.93;100.00;102221.16;13026394;22;20085;-91
2022/10/07 02:24:54;;;;;;;14.27;4.78;;;;;;;6.80;100.00;102183.53;13028097;22;20025;-90
2022/10/07 02:29:57;;;;;;;10.90;4.47;;;;;;;6.43;100.00;102133.53;13054510;22;20015;-91
2022/10/07 02:35:01;;;;;;;14.57;4.35;;;;;;;6.89;100.00;102198.78;13039250;22;20006;-91
2022/10/07 02:40:03;;;;;;;12.52;3.55;;;;;;;6.31;100.00;102064.00;13028332;22;20022;-91
2022/10/07 02:45:28;;;;;;;7.75;3.03;;;;;;;7.88;100.00;102335.69;13027853;22;20014;-91
2022/10/07 02:50:33;;;;;;;11.65;3.30;;;;;;;6.83;100.00;102155.78;13002875;22;20117;-91
2022/10/07 02:55:34;;;;;;;12.70;3.78;;;;;;;6.50;100.00;102108.97;13024935;22;20034;-91
2022/10/07 03:00:36;;;;;;;15.43;3.65;;;;;;;7.49;100.00;102273.22;13071904;22;20026;-91
2022/10/07 03:05:36;;;;;;;11.65;3.42;;;;;;;6.07;100.00;102042.31;13060611;22;20380;-91
2022/10/07 03:10:37;;;;;;;12.02;3.95;;;;;;;7.48;100.00;102279.72;13027584;22;20030;-91
2022/10/07 03:15:39;;;;;;;8.55;3.45;;;;;;;6.59;100.00;102181.66;13052709;22;20033;-91
2022/10/07 03:20:40;;;;;;;15.23;3.90;;;;;;;6.74;100.00;102215.28;13026386;22;20007;-91
2022/10/07 03:25:41;;;;;;;16.70;4.00;;;;;;;7.23;100.00;102309.44;13052488;22;20050;-93
2022/10/07 03:30:42;;;;;;;17.55;4.90;;;;;;;6.94;100.00;102234.63;13055085;22;20026;-92
2022/10/07 03:41:41;;;;;;;17.05;5.38;;;;;;;7.11;100.00;102257.13;12843703;22;20034;-88
2022/10/07 03:47:02;;;;;;;14.52;4.28;;;;;;;6.19;100.00;102102.78;13002402;22;20015;-87
2022/10/07 03:52:02;;;;;;;19.10;4.47;;;;;;;6.92;100.00;102239.44;13021120;22;20022;-87
2022/10/07 03:57:48;;;;;;;15.80;5.72;;;;;;;7.31;100.00;102262.75;13021837;22;20009;-87
2022/10/07 04:02:23;;;;;;;19.58;5.00;;;;;;;6.35;100.00;102122.72;13046109;22;20055;-87
2022/10/07 04:07:24;;;;;;;19.08;6.82;;;;;;;5.26;100.00;101996.00;13021896;22;19999;-87
2022/10/07 04:12:35;;;;;;;18.92;6.13;;;;;;;5.10;100.00;101966.19;12887822;22;20077;-87
2022/10/07 04:17:57;;;;;;;14.40;5.22;;;;;;;6.82;100.00;102215.16;12855192;22;20015;-87
2022/10/07 04:23:05;;;;;;;10.60;5.03;;;;;;;5.95;100.00;102108.63;12831736;22;20011;-86
2022/10/07 04:28:07;;;;;;;17.40;5.10;;;;;;;6.65;100.00;102194.56;12779443;22;21867;-87
2022/10/07 04:33:15;;;;;;;16.98;6.22;;;;;;;5.81;100.00;102059.25;12848973;22;20064;-86
2022/10/07 04:38:41;;;;;;;;;;;;;;;;;;;;;
2022/10/07 04:43:45;;;;;;;;;;;;;;;7.25;100.00;102274.50;12845764;22;20078;-87
2022/10/07 04:48:47;;;;;;;21.00;6.10;;;;;;;5.52;100.00;102059.31;12931181;22;19906;-87
2022/10/07 04:53:54;;;;;;;20.23;6.47;;;;;;;5.32;100.00;101994.41;12771425;22;20018;-87
2022/10/07 04:58:55;;;;;;;15.80;6.47;;;;;;;4.88;100.00;101928.97;12810375;22;20037;-87
2022/10/07 05:03:58;;;;;;;23.88;6.03;;;;;;;5.18;100.00;101970.72;12877244;22;20090;-87
2022/10/07 05:09:20;;;;;;;25.02;6.38;;;;;;;5.62;100.00;102035.28;12902376;22;20014;-86
2022/10/07 05:14:34;;;;;;;;;;;;;;;;;;;;;
2022/10/07 05:19:46;;;;;;;14.88;6.40;;;;;;;5.59;100.00;102038.41;12888833;22;20002;-87
2022/10/07 05:24:50;;;;;;;17.17;6.93;;;;;;;5.82;100.00;102107.41;12972074;22;20010;-90
2022/10/07 05:29:50;;;;;;;17.42;6.75;;;;;;;5.12;100.00;101955.09;13014278;22;20030;-91
2022/10/07 05:34:51;;;;;;;25.60;8.05;;;;;;;5.61;100.00;102044.53;12997002;22;20014;-90
2022/10/07 05:39:52;;;;;;;19.98;6.38;;;;;;;5.04;100.00;101937.81;13018787;22;19999;-91
2022/10/07 05:44:52;;;;;;;17.48;6.13;;;;;;;6.05;100.00;102099.06;12988543;22;20011;-91
2022/10/07 05:49:57;;;;;;;19.65;7.55;;;;;;;5.42;100.00;102000.41;12978763;22;20023;-90
2022/10/07 05:54:57;;;;;;;21.92;7.57;;;;;;;7.17;100.00;102315.72;12980745;22;20422;-91
2022/10/07 05:59:58;;;;;;;16.38;6.22;;;;;;;5.88;100.00;102051.13;12979482;22;20012;-91
2022/10/07 06:04:59;;;;;;;35.65;9.30;;;;;;;5.96;100.00;102059.22;12967772;22;20007;-91
2022/10/07 06:15:19;;;;;;;25.17;7.32;;;;;;;5.30;100.00;101973.78;13026163;22;20010;-91
2022/10/07 06:20:19;;;;;;;18.08;7.95;;;;;;;6.32;100.00;102093.03;13006339;22;20021;-91
2022/10/07 06:25:20;;;;;;;22.77;7.90;;;;;;;5.97;100.00;102008.13;13002755;22;20036;-91
2022/10/07 06:30:21;;;;;;;19.05;7.03;;;;;;;6.53;100.00;102067.53;13016612;22;20099;-91
2022/10/07 06:35:21;;;;;;;19.10;6.60;;;;;;;6.61;100.00;102054.53;13016743;22;20010;-91
2022/10/07 06:40:22;;;;;;;23.80;7.30;;;;;;;6.97;100.00;102085.53;13014116;22;20018;-91
2022/10/07 06:45:22;;;;;;;19.23;6.90;;;;;;;6.88;100.00;102068.41;13015248;22;20037;-90
2022/10/07 06:50:23;;;;;;;21.52;7.05;;;;;;;7.14;100.00;102064.16;13017647;22;20416;-90
2022/10/07 06:55:41;;;;;;;18.23;6.28;;;;;;;7.73;100.00;102129.38;13003451;22;19998;-89
2022/10/07 07:00:49;;;;;;;25.60;6.68;;;;;;;7.93;100.00;102156.84;12910885;22;20014;-92
2022/10/07 07:06:23;;;;;;;17.83;6.43;;;;;;;7.20;100.00;101992.13;12921682;22;20013;-89
2022/10/07 07:11:35;;;;;;;19.55;5.35;;;;;;;7.77;100.00;102081.31;12908589;22;20029;-91
2022/10/07 07:17:06;;;;;;;21.70;6.43;;;;;;;7.33;100.00;101967.50;12913194;22;20025;-92
2022/10/07 07:22:11;;;;;;;12.30;5.05;;;;;;;8.27;100.00;102059.88;12917691;22;20011;-93
2022/10/07 07:27:12;;;;;;;18.85;5.00;;;;;;;8.68;100.00;102089.03;12933468;22;20003;-93
2022/10/07 07:32:23;;;;;;;19.77;4.95;;;;;;;8.96;100.00;102062.38;12872980;22;20019;-93
2022/10/07 07:37:29;;;;;;;24.58;5.00;;;;;;;10.02;100.00;102204.97;12878817;22;20019;-92
2022/10/07 07:42:39;;;;;;;;;;;;;;;;;;;;;
2022/10/07 07:47:40;;;;;;;18.83;5.05;;;;;;;8.37;100.00;101892.06;12950550;22;20010;-90
2022/10/07 08:31:29;;;;;;;16.67;4.38;;;;;;;11.41;100.00;102187.72;11097665;24;10346122;-91
2022/10/07 08:52:43;;;;;;;14.27;3.03;;;;;;;10.70;100.00;101958.47;12909275;22;1362781;-90
2022/10/07 08:58:35;;;;;;;19.27;4.35;;;;;;;10.55;100.00;101870.72;12838415;22;20023;-90
2022/10/07 09:03:56;;;;;;;14.82;2.70;;;;;;;11.05;100.00;101911.00;12690583;23;20452;-89
2022/10/07 09:09:10;;;;;;;15.20;3.45;;;;;;;11.88;100.00;101998.50;12921716;22;20007;-87
2022/10/07 09:14:26;;;;;;;12.25;2.35;;;;;;;12.41;100.00;102029.09;12931179;22;20014;-88
2022/10/07 09:19:35;;;;;;;12.48;2.90;;;;;;;11.54;100.00;101919.22;12980362;22;20050;-87
2022/10/07 09:24:36;;;;;;;10.32;3.00;;;;;;;11.94;100.00;101951.72;12956755;22;19999;-88
2022/10/07 09:29:37;;;;;;;16.25;2.65;;;;;;;11.69;100.00;101837.69;12954464;22;20004;-87
2022/10/07 09:34:37;;;;;;;17.52;2.88;;;;;;;12.57;100.00;101961.25;12953844;22;20046;-89
2022/10/07 09:39:38;;;;;;;15.20;2.63;;;;;;;13.78;100.00;102110.72;12927995;22;20070;-88
2022/10/07 09:44:39;;;;;;;9.07;2.75;;;;;;;12.76;100.00;101898.41;12912584;22;20318;-89
2022/10/07 09:49:40;;;;;;;15.65;3.20;;;;;;;14.19;100.00;102122.59;12900953;22;20523;-88
2022/10/07 09:54:52;;;;;;;10.93;2.42;;;;;;;12.60;100.00;101833.69;12902110;22;20065;-90
2022/10/07 10:00:11;;;;;;;14.02;2.88;;;;;;;14.03;100.00;101985.78;12939742;22;20508;-88
2022/10/07 10:05:24;;;;;;;16.67;2.95;;;;;;;14.43;100.00;102064.31;12907865;22;20467;-88
2022/10/07 10:10:34;;;;;;;21.20;4.35;;;;;;;13.72;100.00;101855.19;12921167;22;20016;-88
2022/10/07 10:15:34;;;;;;;18.27;2.70;;;;;;;15.56;100.00;102047.38;12923691;22;20014;-87
2022/10/07 10:20:45;;;;;;;17.20;2.55;;;;;;;15.50;100.00;102074.25;12975444;22;20468;-87
2022/10/07 10:26:27;;;;;;;12.68;2.33;;;;;;;14.31;100.00;101838.06;12893974;22;20007;-87
2022/10/07 10:31:40;;;;;;;16.50;2.55;;;;;;;15.60;100.00;101972.75;12872957;22;20057;-89
2022/10/07 10:36:55;;;;;;;13.05;2.55;;;;;;;15.13;100.00;101849.31;12835485;22;20004;-89
2022/10/07 10:41:57;;;;;;;14.45;2.70;;;;;;;14.22;100.00;101820.22;12851649;22;20353;-87
2022/10/07 10:46:59;;;;;;;13.30;2.10;;;;;;;14.38;100.00;101825.97;12888410;22;20430;-86
2022/10/07 10:52:19;;;;;;;10.07;2.35;;;;;;;16.06;100.00;102006.53;12895660;22;20019;-89
2022/10/07 10:57:54;;;;;;;14.98;2.22;;;;;;;16.84;100.00;101984.63;12927554;22;20023;-87
2022/10/07 11:03:52;;;;;;;12.40;2.17;;;;;;;16.17;100.00;101858.31;12982730;22;20015;-87
2022/10/07 11:08:53;;;;;;;14.50;2.92;;;;;;;17.43;100.00;101961.25;12693385;22;20493;-87
2022/10/07 11:14:19;;;;;;;9.75;2.30;;;;;;;17.18;100.00;101833.16;12946339;22;20342;-87
2022/10/07 11:19:31;;;;;;;10.63;2.08;;;;;;;18.04;100.00;101951.34;12919359;22;20401;-88
2022/10/07 11:25:08;;;;;;;15.30;2.05;;;;;;;15.57;100.00;101651.31;12823694;22;20007;-89
2022/10/07 11:30:20;;;;;;;16.35;2.17;;;;;;;16.02;100.00;101769.31;12849224;22;20011;-88
2022/10/07 11:36:04;;;;;;;13.93;2.67;;;;;;;16.57;100.00;101795.69;12921982;22;20008;-85
2022/10/07 11:48:16;;;;;;;12.88;2.20;;;;;;;16.24;100.00;101575.50;12716346;22;20350;-90
2022/10/07 11:53:37;;;;;;;13.50;2.20;;;;;;;16.52;100.00;101709.50;12525731;23;20030;-88
2022/10/07 11:59:30;;;;;;;;;;;;;;;;;;;;;
2022/10/07 12:05:26;;;;;;;7.43;1.33;;;;;;;18.88;100.00;101854.13;12493039;23;20130;-89
2022/10/07 12:10:31;;;;;;;12.88;2.42;;;;;;;18.83;100.00;101806.72;12551637;23;20012;-90
2022/10/07 12:15:33;;;;;;;10.68;1.75;;;;;;;18.53;100.00;101738.81;12799885;23;20008;-90
2022/10/07 12:27:05;;;;;;;9.90;2.40;;;;;;;16.69;100.00;101682.28;12439651;23;20075;-88
2022/10/07 12:33:03;;;;;;;9.38;1.92;;;;;;;18.02;100.00;101823.44;12856771;22;20020;-87
2022/10/07 12:38:13;;;;;;;12.73;2.60;;;;;;;16.46;100.00;101649.47;12879378;22;20021;-87
2022/10/07 12:43:35;;;;;;;8.13;2.60;;;;;;;17.02;100.00;101738.53;12817085;22;20004;-85
2022/10/07 12:48:41;;;;;;;8.25;2.30;;;;;;;17.63;100.00;101863.00;12829442;22;20026;-88
2022/10/07 12:53:42;;;;;;;15.07;2.50;;;;;;;15.44;100.00;101584.09;12947894;22;20008;-87
2022/10/07 13:04:36;;;;;;;10.75;2.45;;;;;;;16.40;100.00;101706.16;12926127;22;20012;-85
2022/10/07 13:10:01;;;;;;;11.90;2.00;;;;;;;16.33;100.00;101717.53;12968467;22;20002;-88
2022/10/07 13:15:19;;;;;;;9.20;1.88;;;;;;;16.90;100.00;101782.47;12938507;22;20007;-87
2022/10/07 13:20:36;;;;;;;9.60;1.80;;;;;;;15.41;100.00;101558.81;12916804;22;20098;-88
2022/10/07 13:25:42;;;;;;;8.73;1.63;;;;;;;15.86;100.00;101647.06;12947906;22;20086;-87
2022/10/07 13:30:43;;;;;;;6.90;1.50;;;;;;;16.12;100.00;101616.56;12890114;22;20322;-87
2022/10/07 13:35:46;;;;;;;9.38;1.77;;;;;;;16.45;100.00;101653.34;12893063;22;20003;-88
2022/10/07 13:41:02;;;;;;;3.65;1.17;;;;;;;16.27;100.00;101658.31;12920166;22;20019;-89
2022/10/07 13:46:07;;;;;;;7.65;1.67;;;;;;;16.64;100.00;101698.97;12892960;22;20008;-89
2022/10/07 13:51:11;;;;;;;7.45;2.13;;;;;;;15.48;100.00;101468.69;12884600;22;20349;-88
2022/10/07 13:56:26;;;;;;;12.75;1.70;;;;;;;16.15;100.00;101571.59;12964327;22;20083;-89
2022/10/07 14:01:28;;;;;;;5.20;1.05;;;;;;;16.07;100.00;101558.25;12949542;22;20047;-88
2022/10/07 14:06:35;;;;;;;8.20;1.13;;;;;;;16.48;100.00;101427.69;12908700;22;19996;-91
2022/10/07 14:11:36;;;;;;;9.90;2.50;;;;;;;18.10;100.00;101718.94;12925317;22;20004;-86
2022/10/07 14:16:36;;;;;;;8.32;1.50;;;;;;;17.34;100.00;101642.78;12940243;22;20003;-86
2022/10/07 14:21:40;;;;;;;6.35;1.23;;;;;;;16.75;100.00;101617.22;12941299;22;20464;-85
2022/10/07 14:26:42;;;;;;;9.00;1.65;;;;;;;16.54;100.00;101610.00;12932259;22;19995;-86
2022/10/07 14:37:10;;;;;;;6.05;1.30;;;;;;;17.14;100.00;101716.84;12967078;22;20434;-85
2022/10/07 14:42:35;;;;;;;9.25;2.58;;;;;;;17.01;100.00;101747.16;12970129;22;20015;-86
2022/10/07 14:47:35;;;;;;;8.30;1.50;;;;;;;15.86;100.00;101560.97;12951076;22;20058;-85
2022/10/07 14:52:44;;;;;;;7.65;1.92;;;;;;;16.19;100.00;101638.56;12942593;22;20050;-86
2022/10/07 14:57:46;;;;;;;14.35;2.08;;;;;;;15.63;100.00;101498.41;12941412;22;20015;-87
2022/10/07 15:02:49;;;;;;;7.07;1.50;;;;;;;15.43;100.00;101504.72;12940502;22;20004;-87
2022/10/07 15:07:50;;;;;;;14.55;2.47;;;;;;;15.16;100.00;101493.78;12913684;22;20004;-86
2022/10/07 15:12:50;;;;;;;11.52;1.58;;;;;;;16.34;100.00;101680.28;12938885;22;20008;-88
2022/10/07 15:17:51;;;;;;;9.38;1.48;;;;;;;15.27;100.00;101501.03;12887677;22;20349;-88
2022/10/07 15:22:51;;;;;;;9.02;1.50;;;;;;;16.44;100.00;101680.31;12922089;22;20004;-89
2022/10/07 15:27:52;;;;;;;10.60;1.73;;;;;;;15.56;100.00;101563.59;12963849;22;20003;-87
2022/10/07 15:32:56;;;;;;;9.93;1.60;;;;;;;14.99;100.00;101513.41;12914691;22;20093;-87
2022/10/07 15:37:57;;;;;;;8.23;2.03;;;;;;;14.32;100.00;101395.72;12916132;22;20033;-88
2022/10/07 15:42:57;;;;;;;6.60;2.03;;;;;;;15.29;100.00;101540.44;12955241;22;20016;-87
2022/10/07 15:48:00;;;;;;;9.00;2.17;;;;;;;15.18;100.00;101560.09;12936446;22;20368;-87
2022/10/07 15:53:03;;;;;;;9.43;1.83;;;;;;;14.25;100.00;101422.81;12894774;22;20082;-88
2022/10/07 15:58:04;;;;;;;6.80;1.85;;;;;;;13.89;100.00;101365.25;12937128;22;20081;-87
2022/10/07 16:03:04;;;;;;;9.15;1.55;;;;;;;14.61;100.00;101473.78;12906711;22;20352;-89
2022/10/07 16:08:05;;;;;;;9.13;2.03;;;;;;;14.30;100.00;101448.63;12912259;22;20007;-86
2022/10/07 16:13:05;;;;;;;9.93;2.65;;;;;;;14.26;100.00;101453.03;12885296;22;20026;-88
2022/10/07 16:18:06;;;;;;;8.07;2.13;;;;;;;14.66;100.00;101529.25;12898378;22;20027;-87
2022/10/07 16:23:07;;;;;;;8.93;1.65;;;;;;;14.60;100.00;101512.88;12935879;22;20032;-88
2022/10/07 16:33:27;;;;;;;11.43;2.15;;;;;;;14.33;100.00;101470.25;12949303;22;21154;-87
2022/10/07 16:38:27;;;;;;;6.20;1.35;;;;;;;13.36;100.00;101328.25;12897485;22;20094;-87
2022/10/07 16:43:28;;;;;;;10.77;1.65;;;;;;;14.42;100.00;101484.44;12909396;22;20034;-87
2022/10/07 16:48:36;;;;;;;9.90;1.77;;;;;;;13.45;100.00;101381.16;12909124;22;20499;-87
2022/10/07 16:53:42;;;;;;;15.60;2.13;;;;;;;13.99;100.00;101474.38;12944724;22;20007;-87
2022/10/07 16:58:43;;;;;;;7.80;1.73;;;;;;;14.24;100.00;101510.63;12963701;22;20016;-87
2022/10/07 17:03:45;;;;;;;12.10;2.45;;;;;;;14.08;100.00;101503.25;12916673;22;20441;-87
2022/10/07 17:08:46;;;;;;;9.30;2.08;;;;;;;14.85;100.00;101636.94;12916946;22;20006;-86
2022/10/07 17:13:46;;;;;;;10.27;1.63;;;;;;;13.85;100.00;101466.50;12914473;22;20031;-87
2022/10/07 17:18:47;;;;;;;7.47;2.60;;;;;;;13.01;100.00;101365.44;12891611;22;20086;-86
2022/10/07 17:23:48;;;;;;;7.35;2.20;;;;;;;13.51;100.00;101433.50;12897893;22;20429;-91
2022/10/07 17:28:48;;;;;;;7.57;1.80;;;;;;;13.47;100.00;101423.22;12925697;22;19999;-86
2022/10/07 17:33:49;;;;;;;9.82;1.90;;;;;;;14.04;100.00;101527.88;12946211;22;20004;-87
2022/10/07 17:38:50;;;;;;;7.97;1.50;;;;;;;13.46;100.00;101461.13;12913208;22;20075;-93
2022/10/07 17:43:52;;;;;;;12.07;3.13;;;;;;;13.46;100.00;101450.03;12957483;22;20091;-90
2022/10/07 17:48:54;;;;;;;10.48;2.50;;;;;;;14.31;100.00;101569.38;12911912;22;20085;-88
2022/10/07 17:53:55;;;;;;;12.52;2.53;;;;;;;13.84;100.00;101520.16;12931751;22;20449;-88
2022/10/07 17:58:56;;;;;;;8.68;2.40;;;;;;;12.54;100.00;101301.59;12947362;22;20020;-89
2022/10/07 18:04:00;;;;;;;11.88;2.00;;;;;;;14.35;100.00;101599.34;12947817;22;20446;-90
2022/10/07 18:09:03;;;;;;;11.93;2.22;;;;;;;13.07;100.00;101414.16;12946585;22;19996;-88
2022/10/07 18:19:23;;;;;;;11.43;2.60;;;;;;;13.28;100.00;101469.72;12971629;22;20027;-92
2022/10/07 18:24:26;;;;;;;7.38;1.83;;;;;;;13.55;100.00;101546.41;12928674;22;20010;-90
2022/10/07 18:29:28;;;;;;;11.60;2.50;;;;;;;12.88;100.00;101407.31;12924517;22;20004;-91
2022/10/07 18:34:29;;;;;;;10.20;2.22;;;;;;;12.51;100.00;101349.91;12956227;22;20068;-89
2022/10/07 18:39:29;;;;;;;9.45;1.92;;;;;;;12.41;100.00;101335.97;12923089;22;20096;-90
2022/10/07 18:44:30;;;;;;;9.55;2.00;;;;;;;13.33;100.00;101461.50;12947157;22;20094;-90
2022/10/07 18:49:31;;;;;;;11.30;2.20;;;;;;;12.92;100.00;101378.91;12923090;22;20019;-91
2022/10/07 18:54:32;;;;;;;8.50;2.00;;;;;;;13.06;100.00;101368.28;12945337;22;20000;-90
2022/10/07 18:59:32;;;;;;;8.23;1.80;;;;;;;13.08;100.00;101370.78;12973259;22;20011;-90
2022/10/07 19:04:33;;;;;;;7.60;1.55;;;;;;;13.02;100.00;101388.38;12922228;22;20008;-90
2022/10/07 19:09:33;;;;;;;10.05;2.40;;;;;;;13.23;100.00;101390.31;12925177;22;20062;-90
2022/10/07 19:14:34;;;;;;;6.70;2.00;;;;;;;13.19;100.00;101407.66;12910057;22;20004;-90
2022/10/07 19:19:35;;;;;;;9.52;1.88;;;;;;;12.87;100.00;101342.88;12921081;22;20117;-90
2022/10/07 19:29:54;;;;;;;7.82;2.00;;;;;;;13.05;100.00;101383.19;12948926;22;20000;-89
2022/10/07 19:34:55;;;;;;;15.27;1.95;;;;;;;12.31;100.00;101262.09;12891830;22;20008;-90
2022/10/07 19:39:55;;;;;;;9.95;2.60;;;;;;;13.39;100.00;101454.94;12920910;22;20023;-88
2022/10/07 19:44:56;;;;;;;9.98;2.75;;;;;;;13.79;100.00;101498.00;12922884;22;20031;-89
2022/10/07 19:49:57;;;;;;;9.43;2.33;;;;;;;13.20;100.00;101410.16;12920930;22;20024;-89
2022/10/07 19:54:57;;;;;;;7.78;1.80;;;;;;;12.74;100.00;101359.03;12923785;22;20014;-91
2022/10/07 19:59:58;;;;;;;9.35;1.88;;;;;;;12.81;100.00;101376.25;12923835;22;20032;-84
2022/10/07 20:04:59;;;;;;;8.50;2.22;;;;;;;11.88;100.00;101259.03;12919966;22;20430;-85
2022/10/07 20:09:59;;;;;;;7.50;1.65;;;;;;;12.12;100.00;101341.63;12970052;22;20029;-85
2022/10/07 20:15:00;;;;;;;10.15;1.98;;;;;;;12.95;100.00;101465.97;12941906;22;20019;-84
2022/10/07 20:20:01;;;;;;;12.27;1.92;;;;;;;12.86;100.00;101456.47;12918253;22;20434;-85
2022/10/07 20:25:02;;;;;;;12.23;2.80;;;;;;;11.91;100.00;101332.22;12917143;22;20020;-84
2022/10/07 20:30:06;;;;;;;7.20;1.83;;;;;;;11.91;100.00;101296.34;12967965;22;20018;-84
2022/10/07 20:35:10;;;;;;;8.68;2.33;;;;;;;12.21;100.00;101395.31;12942395;22;20004;-84
2022/10/07 20:45:54;;;;;;;13.80;2.65;;;;;;;11.65;100.00;101290.38;12955266;22;19996;-86
2022/10/07 20:50:52;;;;;;;8.68;2.28;;;;;;;12.76;100.00;101489.47;12967524;22;20016;-85
2022/10/07 20:55:53;;;;;;;10.23;2.30;;;;;;;12.68;100.00;101472.22;12944439;22;20008;-83
2022/10/07 21:00:53;;;;;;;8.57;2.30;;;;;;;12.13;100.00;101394.91;12933161;22;20057;-83
2022/10/07 21:05:55;;;;;;;12.60;2.05;;;;;;;11.79;100.00;101346.06;12921122;22;20079;-83
2022/10/07 21:11:02;;;;;;;14.45;2.65;;;;;;;11.37;100.00;101246.34;12945841;22;20004;-84
2022/10/07 21:16:06;;;;;;;5.55;1.83;;;;;;;10.93;100.00;101177.28;12922834;22;20038;-84
2022/10/07 21:21:09;;;;;;;8.82;1.90;;;;;;;11.93;100.00;101320.91;12921431;22;20337;-84
2022/10/07 21:26:10;;;;;;;6.82;2.05;;;;;;;11.29;100.00;101242.09;12929780;22;20036;-84
2022/10/07 21:31:15;;;;;;;13.25;3.03;;;;;;;11.08;100.00;101216.97;12920533;22;20086;-82
2022/10/07 21:36:17;;;;;;;9.05;2.33;;;;;;;11.40;100.00;101237.59;12970469;22;20026;-87
2022/10/07 21:41:19;;;;;;;12.60;2.67;;;;;;;10.73;100.00;101169.50;12945535;22;20012;-84
2022/10/07 21:46:20;;;;;;;8.02;1.85;;;;;;;10.54;100.00;101089.88;12962842;22;20012;-85
2022/10/07 21:51:21;;;;;;;9.77;2.78;;;;;;;11.37;100.00;101273.91;12913401;22;20031;-83
2022/10/07 21:56:22;;;;;;;7.78;2.30;;;;;;;10.61;100.00;101129.09;12948313;22;20091;-84
2022/10/07 22:01:23;;;;;;;12.07;2.28;;;;;;;9.87;100.00;101063.84;12956290;22;20098;-84
2022/10/07 22:08:33;;;;;;;10.23;3.00;;;;;;;11.18;100.00;101295.38;12959785;22;20014;-85
2022/10/07 22:11:44;;;;;;;13.00;3.60;;;;;;;10.81;100.00;101215.91;12940268;22;20031;-85
2022/10/07 22:16:48;;;;;;;15.07;4.03;;;;;;;11.13;100.00;101287.84;12921796;22;20038;-85
2022/10/07 22:21:49;;;;;;;9.23;3.05;;;;;;;9.92;100.00;101092.53;12947322;22;20011;-85
2022/10/07 22:26:52;;;;;;;10.20;2.70;;;;;;;10.01;100.00;101118.59;12932190;22;20094;-84
2022/10/07 22:31:53;;;;;;;8.60;2.47;;;;;;;11.00;100.00;101293.69;12922601;22;20419;-85
2022/10/07 22:36:53;;;;;;;9.60;2.40;;;;;;;10.24;100.00;101168.00;12982247;22;20015;-89
2022/10/07 22:41:54;;;;;;;11.10;2.47;;;;;;;10.14;100.00;101154.06;12930399;22;20517;-87
2022/10/07 22:46:55;;;;;;;17.20;3.17;;;;;;;10.88;100.00;101277.19;12948699;22;20057;-88
2022/10/07 22:51:57;;;;;;;11.95;2.58;;;;;;;10.56;100.00;101222.59;12924124;22;20047;-88
2022/10/07 22:56:58;;;;;;;13.00;2.67;;;;;;;11.44;100.00;101379.38;12937733;22;20112;-90
2022/10/07 23:02:00;;;;;;;14.35;2.83;;;;;;;10.37;100.00;101150.41;12924824;22;20023;-91
2022/10/07 23:07:01;;;;;;;11.82;2.45;;;;;;;9.98;100.00;101113.56;12948604;22;20004;-92
2022/10/07 23:12:03;;;;;;;9.50;2.38;;;;;;;9.47;100.00;101017.16;12925147;22;20012;-90
2022/10/07 23:17:04;;;;;;;12.98;2.70;;;;;;;11.80;100.00;101350.50;12928133;22;20074;-89
2022/10/07 23:22:04;;;;;;;7.60;2.10;;;;;;;10.29;100.00;101082.84;12949234;22;20016;-92
2022/10/07 23:27:05;;;;;;;13.80;2.83;;;;;;;11.19;100.00;101222.66;12924250;22;20007;-89
2022/10/07 23:32:06;;;;;;;9.75;3.17;;;;;;;11.55;100.00;101248.84;12925222;22;20011;-89
2022/10/07 23:37:06;;;;;;;11.23;2.22;;;;;;;11.39;100.00;101234.00;12924771;22;20083;-89
2022/10/07 23:42:07;;;;;;;12.20;2.30;;;;;;;11.04;100.00;101151.59;12948649;22;20012;-89
2022/10/07 23:47:07;;;;;;;10.10;1.90;;;;;;;10.90;100.00;101146.41;12922601;22;20011;-90
2022/10/07 23:52:08;;;;;;;12.10;2.30;;;;;;;11.11;100.00;101172.34;12926262;22;20429;-91
2022/10/07 23:57:09;;;;;;;8.70;2.47;;;;;;;11.62;100.00;101243.19;12924976;22;24507;-90
